Ana Sayfa
METAR-TAF:

METAR-TAF

Havaalanları :

St. Catharines, Ontario, Kanada

Enlem: 43-12N, Boylam: 079-10W, yükseklik: 98 m

Güncel hava durumu gözlemi

Rapor saat 20:00 UTC de 47 dakika önce yapıldı.
Rüzgar güneybatıdan 18 kt ve 23 kt'a kadar ani rüzgarlar
Sıcaklık 8°C
Nem 34%
Basınç 1015 hPa
Görüş mesafesi: 24.1 km
19000 ft yükseklikte parçalı bulutlu

METAR: CYSN 232000Z 23018G23KT 15SM SCT190 08/M07 A2996 RMK CI3 SLP150

Saat: 15:47 (20:47 UTC)

Tahmin

Rapor saat 19:42 UTC de 1 saat ve 5 dakika önce yapıldı.
Ayın 23'si saat 20 UTC'den ayın 24'si saat 02 UTC'ye kadar geçerli Tahmin
Rüzgar güneybatıdan 15 kt ve 25 kt'a kadar ani rüzgarlar
Görüş mesafesi: 10 km
24000 ft yükseklikte parçalı bulutlu

TAF: CYSN 231942Z 2320/2402 22015G25KT P6SM SCT240 RMK NXT FCST WILL BE ISSUED AT 241345Z

4.000'den fazla havaalanı için hava durumu gözlemleri ve tahminleri (METAR ve TAF raporları).

Kullanılabilir istasyonlar harita üzerinde sarı ve kırmızı noktalarla gösterilir.

İstasyonun adını görmek için fareyi noktanın üzerinde gezdirin.

Sonrasında hava gözlem ve tahminlerini görmek için tıklayın.

Haritayı değiştirmek için: yaklaştırmak için siyah artı işaretli yeşil düğmeye ve uzaklaştırmak için de eksi işaretli düğmeye hızla tıklayın; bitişik haritalar için yeşil okları kullanın.


METAR-TAF: